Kittitas, Washington
Current Conditions -  °F | °C
As of 11:53 AM on Friday 19 Dec 2014 (Local Time) from KELN Reporting Station
Broken Clouds Broken Clouds  
Wind Chill: 40°   Ceiling: 300
Heat Index: 40°   Visibility: 9mi
Dew Point: 36°   Wind: 0mph
Humidity: 86%   Direction: NA
Pressure: 29.9"   Gusts: NA
Location:  46.98°N, 120.42°W
Report Text: KELN 191953Z AUTO 00000KT 9SM BKN003 04/02 A2990 RMK AO2 SLP136 T00440022
Loading
Personal Weather Stations






























Interactive Weather Map New forecast layout! Learn more

10-Day Weather Forecast

Advertisements
Track Severe Weather on mobile